Time;durP1;ratioP1;P1;durP2;ratioP2;P2;SDS_P1;SDS_P2;PMS_P1;PMS_P2;Temp;Humidity;BMP_temperature;BMP_pressure;BME280_temperature;BME280_humidity;BME280_pressure;Samples;Min_cycle;Max_cycle;Signal;HPM_P1;HPM_P2
2023/09/14 00:00:50;;;;;;;3.53;2.33;;;;;;;23.03;56.60;100230.28;5066119;27;97831;-87
2023/09/14 00:03:15;;;;;;;2.40;2.15;;;;;;;23.01;56.80;100226.91;5072469;27;96984;-86
2023/09/14 00:05:49;;;;;;;4.03;3.22;;;;;;;23.03;56.89;100234.81;5044068;27;97489;-86
2023/09/14 00:08:15;;;;;;;5.07;2.45;;;;;;;23.02;56.76;100233.97;5052953;27;101423;-86
2023/09/14 00:10:41;;;;;;;3.42;2.42;;;;;;;23.02;56.78;100233.97;5049019;27;97510;-88
2023/09/14 00:13:08;;;;;;;2.53;2.33;;;;;;;23.00;57.25;100225.22;5067184;27;97205;-88
2023/09/14 00:15:33;;;;;;;3.40;2.78;;;;;;;22.97;57.12;100232.66;5041520;27;96951;-87
2023/09/14 00:17:59;;;;;;;3.90;3.50;;;;;;;22.95;57.30;100234.63;5065290;27;101501;-87
2023/09/14 00:20:26;;;;;;;4.32;4.00;;;;;;;22.91;57.39;100233.16;5051888;27;101167;-88
2023/09/14 00:22:54;;;;;;;3.40;3.03;;;;;;;22.90;57.35;100231.50;5049774;27;97188;-86
2023/09/14 00:25:21;;;;;;;8.90;8.10;;;;;;;22.90;57.41;100242.19;5052847;27;96951;-87
2023/09/14 00:27:51;;;;;;;8.50;2.53;;;;;;;22.91;57.42;100241.19;5046914;27;101705;-88
2023/09/14 00:30:19;;;;;;;4.10;2.00;;;;;;;22.88;57.52;100245.00;5052093;27;98281;-88
2023/09/14 00:32:44;;;;;;;2.58;2.00;;;;;;;22.83;57.67;100234.69;5052721;27;97373;-87
2023/09/14 00:35:11;;;;;;;2.53;1.98;;;;;;;22.80;57.74;100234.94;5055382;27;97073;-87
2023/09/14 00:37:37;;;;;;;2.00;1.80;;;;;;;22.79;57.86;100240.44;5041955;27;101342;-86
2023/09/14 00:40:06;;;;;;;3.17;1.95;;;;;;;22.78;57.67;100238.75;5040371;27;100171;-87
2023/09/14 00:42:43;;;;;;;4.03;2.40;;;;;;;22.76;57.72;100246.06;5041144;27;97087;-87
2023/09/14 00:45:12;;;;;;;5.43;4.22;;;;;;;22.69;57.92;100244.88;5046517;27;96770;-87
2023/09/14 00:47:40;;;;;;;5.75;2.35;;;;;;;22.66;58.07;100245.13;5056651;27;98411;-87
2023/09/14 00:50:06;;;;;;;6.50;3.50;;;;;;;22.62;58.07;100251.75;5073993;27;97840;-88
2023/09/14 00:52:36;;;;;;;3.67;2.83;;;;;;;22.57;58.44;100246.78;5044818;27;96842;-88
2023/09/14 00:55:04;;;;;;;2.65;2.03;;;;;;;22.56;58.64;100247.75;5047309;27;97039;-86
2023/09/14 00:57:30;;;;;;;2.13;1.88;;;;;;;22.54;58.58;100252.38;5045145;27;101241;-87
2023/09/14 00:59:56;;;;;;;2.80;1.98;;;;;;;22.49;58.81;100255.47;5051035;27;98584;-87
2023/09/14 01:02:22;;;;;;;3.60;3.25;;;;;;;22.44;58.90;100256.84;5062309;27;96770;-88
2023/09/14 01:04:48;;;;;;;4.47;3.47;;;;;;;22.38;59.08;100250.19;5038413;27;97027;-86
2023/09/14 01:07:17;;;;;;;6.72;6.00;;;;;;;22.35;59.09;100253.94;5061605;27;98841;-88
2023/09/14 01:09:43;;;;;;;2.28;2.03;;;;;;;22.31;59.17;100244.50;5072343;27;98169;-87
2023/09/14 01:12:08;;;;;;;3.40;2.08;;;;;;;22.30;59.51;100256.16;5044862;27;96835;-87
2023/09/14 01:14:44;;;;;;;2.78;1.90;;;;;;;22.28;59.33;100257.25;5029647;27;96866;-87
2023/09/14 01:17:16;;;;;;;2.72;1.85;;;;;;;22.31;59.52;100259.69;5086197;27;97649;-86
2023/09/14 01:19:41;;;;;;;3.97;2.17;;;;;;;22.29;59.51;100261.66;5037615;27;100616;-88
2023/09/14 01:22:25;;;;;;;2.20;2.00;;;;;;;22.27;59.59;100250.22;5060214;27;96847;-87
2023/09/14 01:25:18;;;;;;;5.88;2.13;;;;;;;22.26;59.47;100254.72;5049350;27;97366;-87
2023/09/14 01:27:44;;;;;;;5.70;2.25;;;;;;;22.22;59.68;100253.28;5047919;27;102098;-87
2023/09/14 01:30:10;;;;;;;4.10;2.58;;;;;;;22.20;59.75;100247.22;5047686;27;101199;-86
2023/09/14 01:32:36;;;;;;;6.40;5.43;;;;;;;22.19;59.85;100258.03;5039737;27;96936;-87
2023/09/14 01:35:04;;;;;;;3.60;3.30;;;;;;;22.13;59.94;100252.19;5024484;27;97004;-86
2023/09/14 01:37:30;;;;;;;5.38;4.97;;;;;;;22.10;59.94;100254.28;5069694;27;101482;-87
2023/09/14 01:39:56;;;;;;;6.25;5.65;;;;;;;22.10;59.99;100256.94;5046061;27;101162;-88
2023/09/14 01:42:21;;;;;;;5.47;4.97;;;;;;;22.06;60.20;100255.53;5041204;27;97113;-88
2023/09/14 01:44:48;;;;;;;3.33;2.60;;;;;;;22.01;60.17;100255.03;5046554;27;97542;-88
2023/09/14 01:47:14;;;;;;;5.03;2.83;;;;;;;21.97;60.35;100248.28;5036651;27;101220;-87
2023/09/14 01:49:39;;;;;;;4.50;2.53;;;;;;;21.91;60.48;100252.28;5043747;27;101176;-86
2023/09/14 01:52:05;;;;;;;3.35;2.47;;;;;;;21.90;60.64;100262.16;5028680;27;97024;-88
2023/09/14 01:54:31;;;;;;;4.45;2.80;;;;;;;21.90;60.75;100261.28;5063632;27;97355;-85
2023/09/14 01:56:56;;;;;;;5.57;5.07;;;;;;;21.88;60.92;100261.41;5044448;27;100544;-87
2023/09/14 01:59:22;;;;;;;3.67;2.88;;;;;;;21.84;60.85;100267.13;5048678;27;100565;-88
2023/09/14 02:01:47;;;;;;;3.30;2.83;;;;;;;21.87;60.88;100273.06;5058818;27;97238;-87
2023/09/14 02:04:13;;;;;;;3.90;3.13;;;;;;;21.84;61.08;100275.13;5057395;27;96966;-85
2023/09/14 02:06:38;;;;;;;4.53;3.22;;;;;;;21.84;61.16;100280.47;5036574;27;101173;-87
2023/09/14 02:09:04;;;;;;;4.00;3.38;;;;;;;21.80;61.44;100276.38;5066557;27;98126;-87
2023/09/14 02:11:30;;;;;;;4.78;3.83;;;;;;;21.77;61.48;100272.13;5057761;27;96990;-88
2023/09/14 02:13:55;;;;;;;7.50;7.00;;;;;;;21.79;61.55;100277.34;5057620;27;96971;-87
2023/09/14 02:16:21;;;;;;;11.70;9.48;;;;;;;21.78;61.42;100272.97;5054188;27;101289;-85
2023/09/14 02:18:46;;;;;;;9.88;8.93;;;;;;;21.78;61.47;100286.31;5057771;27;101135;-88
2023/09/14 02:21:12;;;;;;;6.35;5.75;;;;;;;21.77;61.80;100281.97;5065562;27;96911;-87
2023/09/14 02:23:39;;;;;;;8.70;5.80;;;;;;;21.77;61.52;100281.97;5052804;27;96732;-88
2023/09/14 02:26:04;;;;;;;5.88;5.45;;;;;;;21.78;61.53;100272.97;5051436;27;101786;-87
2023/09/14 02:28:30;;;;;;;3.92;2.80;;;;;;;21.78;61.59;100281.81;5051062;27;100023;-87
2023/09/14 02:30:55;;;;;;;4.47;2.97;;;;;;;21.78;61.63;100284.50;5066418;27;96823;-88
2023/09/14 02:33:21;;;;;;;4.05;3.00;;;;;;;21.75;61.61;100278.56;5052470;27;96991;-86
2023/09/14 02:35:50;;;;;;;3.28;2.72;;;;;;;21.75;61.73;100287.41;5056415;27;100713;-88
2023/09/14 02:38:17;;;;;;;3.75;3.10;;;;;;;21.76;61.68;100282.91;5050592;27;100316;-87
2023/09/14 02:40:43;;;;;;;6.03;2.78;;;;;;;21.76;61.74;100290.94;5043308;27;96868;-85
2023/09/14 02:43:08;;;;;;;4.25;2.85;;;;;;;21.74;61.93;100301.75;5077754;27;96803;-86
2023/09/14 02:45:34;;;;;;;3.95;2.60;;;;;;;21.73;62.04;100301.88;5057504;27;101218;-87
2023/09/14 02:47:59;;;;;;;6.38;2.67;;;;;;;21.73;62.02;100301.88;5060200;27;98058;-86
2023/09/14 02:50:25;;;;;;;3.50;2.35;;;;;;;21.73;61.92;100315.22;5036218;27;98489;-87
2023/09/14 02:52:50;;;;;;;3.28;2.70;;;;;;;21.71;62.08;100318.03;5032253;27;96863;-87
2023/09/14 02:55:16;;;;;;;6.40;2.53;;;;;;;21.73;62.02;100323.25;5040690;27;99386;-88
2023/09/14 02:57:42;;;;;;;4.80;2.50;;;;;;;21.73;61.98;100323.25;5036070;27;101612;-87
2023/09/14 03:00:12;;;;;;;2.95;2.50;;;;;;;21.72;61.90;100326.91;5031217;27;98269;-87
2023/09/14 03:02:40;;;;;;;9.15;2.92;;;;;;;21.71;61.96;100334.06;5032225;27;96945;-88
2023/09/14 03:05:06;;;;;;;6.40;2.80;;;;;;;21.69;62.01;100330.66;5042915;27;101317;-87
2023/09/14 03:07:32;;;;;;;3.45;2.65;;;;;;;21.67;61.86;100330.81;5039922;27;101296;-87
2023/09/14 03:09:58;;;;;;;5.55;3.10;;;;;;;21.68;62.22;100340.50;5035170;27;97058;-88
2023/09/14 03:12:23;;;;;;;6.13;3.85;;;;;;;21.64;62.11;100333.72;5066697;27;96820;-85
2023/09/14 03:14:49;;;;;;;4.53;3.50;;;;;;;21.66;62.12;100337.09;5062976;27;98184;-85
2023/09/14 03:17:14;;;;;;;10.00;4.47;;;;;;;21.65;62.21;100337.22;5056174;27;100734;-87
2023/09/14 03:19:42;;;;;;;9.45;3.80;;;;;;;21.65;62.34;100342.56;5037649;27;96778;-86
2023/09/14 03:22:08;;;;;;;6.25;3.88;;;;;;;21.64;62.23;100338.19;5053680;27;96904;-87
2023/09/14 03:24:34;;;;;;;4.93;3.63;;;;;;;21.63;62.32;100345.34;5052342;27;101404;-87
2023/09/14 03:27:00;;;;;;;4.47;3.47;;;;;;;21.61;62.35;100341.09;5052938;27;101199;-87
2023/09/14 03:29:25;;;;;;;4.18;3.35;;;;;;;21.59;62.47;100343.06;5047161;27;96882;-87
2023/09/14 03:31:52;;;;;;;3.42;2.85;;;;;;;21.56;62.50;100337.97;5044700;27;98072;-87
2023/09/14 03:34:18;;;;;;;4.25;3.20;;;;;;;21.59;62.74;100340.41;5056176;27;102233;-87
2023/09/14 03:36:45;;;;;;;5.25;3.10;;;;;;;21.58;62.65;100347.53;5031524;27;101388;-86
2023/09/14 03:39:12;;;;;;;7.25;4.20;;;;;;;21.59;62.69;100346.59;5042007;27;96861;-87
2023/09/14 03:41:38;;;;;;;5.10;3.30;;;;;;;21.61;62.85;100351.78;5041858;27;97009;-88
2023/09/14 03:44:04;;;;;;;5.63;3.05;;;;;;;21.59;62.67;100351.94;5075148;27;97931;-86
2023/09/14 03:46:30;;;;;;;6.00;3.63;;;;;;;21.62;62.65;100358.84;5041053;27;100379;-87
2023/09/14 03:48:55;;;;;;;5.25;3.50;;;;;;;21.63;62.65;100363.22;5053356;27;96887;-88
2023/09/14 03:51:21;;;;;;;6.18;4.82;;;;;;;21.64;62.59;100364.91;5028660;27;97770;-86
2023/09/14 03:53:46;;;;;;;3.92;3.53;;;;;;;21.65;62.74;100370.13;5054896;27;100896;-87
2023/09/14 03:56:13;;;;;;;7.20;4.10;;;;;;;21.63;62.59;100369.41;5038740;27;100694;-87
2023/09/14 03:58:39;;;;;;;5.78;3.88;;;;;;;21.64;62.77;100367.56;5043094;27;97376;-86
2023/09/14 04:01:05;;;;;;;6.13;4.50;;;;;;;21.63;62.76;100371.22;5053123;27;96893;-87
2023/09/14 04:03:30;;;;;;;4.35;3.75;;;;;;;21.64;62.91;100375.56;5034924;27;101031;-86
2023/09/14 04:05:56;;;;;;;6.70;4.57;;;;;;;21.63;62.65;100377.41;5069372;27;97606;-87
2023/09/14 04:08:23;;;;;;;8.95;5.13;;;;;;;21.62;62.75;100377.53;5066127;27;97156;-87
2023/09/14 04:10:51;;;;;;;8.27;5.28;;;;;;;21.62;62.77;100374.88;5062393;27;96824;-85
2023/09/14 04:13:31;;;;;;;6.90;4.95;;;;;;;21.63;62.83;100385.41;5031511;27;101073;-87
2023/09/14 04:16:02;;;;;;;8.23;6.45;;;;;;;21.59;62.85;100375.13;5052217;27;100176;-87
2023/09/14 04:18:29;;;;;;;7.75;7.05;;;;;;;21.58;62.99;100392.94;5034211;27;96779;-87
2023/09/14 04:20:55;;;;;;;11.32;8.40;;;;;;;21.56;62.99;100396.72;5038634;27;97152;-87
2023/09/14 04:23:20;;;;;;;9.95;9.15;;;;;;;21.54;62.93;100402.19;5056915;27;97926;-87
2023/09/14 04:25:47;;;;;;;8.82;7.13;;;;;;;21.54;63.25;100404.00;5031953;27;101655;-87
2023/09/14 04:28:14;;;;;;;8.32;7.63;;;;;;;21.53;63.12;100400.47;5047701;27;96786;-87
2023/09/14 04:30:43;;;;;;;9.43;8.63;;;;;;;21.54;63.21;100402.19;5050049;27;97605;-85
2023/09/14 04:33:10;;;;;;;12.02;10.95;;;;;;;21.54;63.16;100412.84;5068602;27;101158;-86
2023/09/14 04:35:36;;;;;;;17.77;16.55;;;;;;;21.54;63.42;100404.00;5037335;27;102285;-89
2023/09/14 04:38:02;;;;;;;16.40;15.30;;;;;;;21.55;63.63;100411.03;5056582;27;96835;-90
2023/09/14 04:40:27;;;;;;;15.02;13.73;;;;;;;21.53;63.88;100423.69;5033722;27;96774;-83
2023/09/14 04:42:53;;;;;;;14.45;13.38;;;;;;;21.54;64.36;100422.69;5049865;27;100951;-84
2023/09/14 04:45:19;;;;;;;8.13;7.15;;;;;;;21.47;64.74;100427.69;5039066;27;101584;-82
2023/09/14 04:47:44;;;;;;;8.05;7.35;;;;;;;21.45;65.11;100438.47;5053353;27;97444;-85
2023/09/14 04:50:10;;;;;;;16.95;15.75;;;;;;;21.43;64.92;100434.19;5038618;27;98086;-83
2023/09/14 04:52:35;;;;;;;18.75;17.15;;;;;;;21.39;65.38;100435.41;5062435;27;98045;-91
2023/09/14 04:55:01;;;;;;;12.80;11.63;;;;;;;21.33;65.59;100436.72;5056937;27;101662;-91
2023/09/14 04:57:27;;;;;;;10.80;9.85;;;;;;;21.34;65.36;100441.06;5047040;27;97332;-90
2023/09/14 04:59:52;;;;;;;10.35;9.35;;;;;;;21.32;65.56;100447.50;5028862;27;97316;-91
2023/09/14 05:02:18;;;;;;;12.55;11.25;;;;;;;21.30;65.60;100444.13;5048505;27;100408;-91
2023/09/14 05:04:44;;;;;;;13.35;12.25;;;;;;;21.25;65.40;100458.66;5034574;27;101257;-88
2023/09/14 05:07:10;;;;;;;15.98;14.88;;;;;;;21.24;65.57;100456.97;5040592;27;96860;-88
2023/09/14 05:09:35;;;;;;;8.15;7.43;;;;;;;21.22;65.56;100458.88;5055462;27;97106;-86
2023/09/14 05:12:01;;;;;;;10.98;10.05;;;;;;;21.20;65.62;100459.97;5034186;27;100878;-83
2023/09/14 05:14:27;;;;;;;11.27;10.48;;;;;;;21.14;65.62;100463.09;5028091;27;101013;-86
2023/09/14 05:16:52;;;;;;;10.50;9.70;;;;;;;21.11;65.77;100469.53;5034267;27;97034;-85
2023/09/14 05:19:18;;;;;;;8.18;5.28;;;;;;;21.10;65.76;100469.66;5053128;27;97075;-86
2023/09/14 05:21:44;;;;;;;6.88;6.18;;;;;;;21.11;65.92;100471.34;5046568;27;98306;-86
2023/09/14 05:24:09;;;;;;;12.35;11.35;;;;;;;21.11;66.14;100477.53;5023408;27;101459;-83
2023/09/14 05:26:35;;;;;;;4.65;3.08;;;;;;;21.11;66.20;100476.69;5047886;27;96885;-86
2023/09/14 05:29:01;;;;;;;4.47;3.20;;;;;;;21.12;66.23;100487.25;5049466;27;97059;-86
2023/09/14 05:31:26;;;;;;;5.22;2.90;;;;;;;21.14;66.40;100482.63;5056800;27;98002;-86
2023/09/14 05:33:52;;;;;;;4.35;2.38;;;;;;;21.09;66.55;100486.63;5052416;27;100117;-85
2023/09/14 05:36:17;;;;;;;4.60;2.63;;;;;;;21.10;66.88;100494.53;5050433;27;96802;-86
2023/09/14 05:38:44;;;;;;;7.05;2.53;;;;;;;21.10;66.55;100491.84;5050321;27;97472;-86
2023/09/14 05:41:10;;;;;;;4.72;3.05;;;;;;;21.09;66.67;100492.81;5034659;27;101171;-86
2023/09/14 05:43:36;;;;;;;3.35;2.22;;;;;;;21.12;66.48;100499.72;5055396;27;97895;-85
2023/09/14 05:46:02;;;;;;;4.82;2.00;;;;;;;21.10;66.57;100497.19;5036365;27;96807;-85
2023/09/14 05:48:28;;;;;;;2.28;1.70;;;;;;;21.13;66.29;100501.44;5056635;27;97419;-86
2023/09/14 05:50:53;;;;;;;3.40;1.45;;;;;;;21.10;65.86;100505.19;5054764;27;100114;-86
2023/09/14 05:53:19;;;;;;;3.90;1.30;;;;;;;21.13;65.74;100510.31;5069392;27;101442;-85
2023/09/14 05:55:45;;;;;;;3.30;1.42;;;;;;;21.08;65.57;100515.13;5031816;27;96903;-85
2023/09/14 05:58:12;;;;;;;2.88;1.60;;;;;;;21.09;65.66;100515.97;5026924;27;97006;-85
2023/09/14 06:00:37;;;;;;;2.10;1.27;;;;;;;21.07;65.69;100515.25;5043188;27;101362;-85
2023/09/14 06:03:03;;;;;;;3.33;1.70;;;;;;;21.06;65.49;100525.09;5055271;27;97257;-86
2023/09/14 06:05:29;;;;;;;4.35;2.40;;;;;;;21.04;65.11;100529.69;5025508;27;97255;-87
2023/09/14 06:07:54;;;;;;;2.20;2.00;;;;;;;21.00;65.12;100526.38;5066111;27;97425;-86
2023/09/14 06:10:20;;;;;;;3.47;2.05;;;;;;;20.97;65.29;100531.97;5025572;27;101411;-83
2023/09/14 06:12:46;;;;;;;3.92;2.20;;;;;;;20.99;65.14;100532.66;5059271;27;97891;-83
2023/09/14 06:15:11;;;;;;;4.45;3.00;;;;;;;20.94;65.18;100523.31;5036423;27;97127;-85
2023/09/14 06:17:37;;;;;;;3.90;3.13;;;;;;;20.96;65.30;100532.06;5039169;27;96883;-86
2023/09/14 06:20:04;;;;;;;4.40;2.53;;;;;;;20.95;65.08;100536.53;5049907;27;101766;-86
2023/09/14 06:22:30;;;;;;;4.25;2.70;;;;;;;20.96;65.00;100538.25;5051060;27;101398;-83
2023/09/14 06:24:56;;;;;;;3.60;3.30;;;;;;;20.94;64.94;100541.97;5031733;27;98611;-86
2023/09/14 06:27:21;;;;;;;5.63;4.00;;;;;;;20.95;65.11;100546.38;5043824;27;96850;-86
2023/09/14 06:29:47;;;;;;;4.63;2.65;;;;;;;20.98;64.78;100546.16;5030206;27;100826;-86
2023/09/14 06:32:12;;;;;;;7.43;3.50;;;;;;;20.99;64.51;100542.50;5036808;27;101759;-85
2023/09/14 06:34:38;;;;;;;12.30;7.03;;;;;;;21.02;64.20;100551.13;5035776;27;97541;-85
2023/09/14 06:37:03;;;;;;;3.72;2.60;;;;;;;21.03;63.81;100554.63;5047703;27;97122;-85
2023/09/14 06:39:29;;;;;;;3.83;2.28;;;;;;;21.01;63.57;100551.25;5034385;27;101377;-85
2023/09/14 06:41:55;;;;;;;4.50;2.60;;;;;;;21.02;63.89;100556.47;5040347;27;101113;-84
2023/09/14 06:44:23;;;;;;;13.30;12.00;;;;;;;21.02;63.88;100558.28;5043735;27;97234;-85
2023/09/14 06:46:49;;;;;;;8.18;6.07;;;;;;;21.05;63.77;100566.06;5051995;27;97380;-83
2023/09/14 06:49:14;;;;;;;34.08;11.18;;;;;;;21.07;63.88;100561.47;5055308;27;98174;-84
2023/09/14 06:51:40;;;;;;;4.40;2.60;;;;;;;21.04;63.84;100567.03;5056248;27;100456;-84
2023/09/14 06:54:05;;;;;;;7.80;3.80;;;;;;;20.99;63.97;100566.50;5056266;27;96884;-83
2023/09/14 06:56:31;;;;;;;4.03;2.17;;;;;;;21.03;64.17;100576.88;5053411;27;96974;-82
2023/09/14 06:58:57;;;;;;;8.05;3.08;;;;;;;21.08;63.95;100573.00;5066550;27;101278;-83
2023/09/14 07:01:23;;;;;;;3.75;2.58;;;;;;;21.07;63.88;100577.47;5047508;27;101735;-81
2023/09/14 07:03:51;;;;;;;9.13;3.08;;;;;;;21.08;63.91;100581.00;5051986;27;97198;-81
2023/09/14 07:06:17;;;;;;;7.82;2.83;;;;;;;21.11;63.84;100588.78;5061597;27;99272;-82
2023/09/14 07:08:42;;;;;;;8.38;3.13;;;;;;;21.08;64.20;100587.19;5034341;27;100713;-82
2023/09/14 07:11:08;;;;;;;4.45;3.00;;;;;;;21.11;64.29;100588.78;5036643;27;97608;-81
2023/09/14 07:13:34;;;;;;;8.48;3.08;;;;;;;21.12;64.15;100593.13;5053325;27;97203;-82
2023/09/14 07:16:00;;;;;;;8.48;2.90;;;;;;;21.13;64.06;100594.88;5026898;27;99173;-82
2023/09/14 07:18:30;;;;;;;8.52;3.20;;;;;;;21.16;64.15;100597.31;5049283;27;101623;-82
2023/09/14 07:20:57;;;;;;;4.88;2.78;;;;;;;21.35;63.58;100603.00;5062306;27;98114;-82
2023/09/14 07:23:23;;;;;;;8.60;5.88;;;;;;;21.60;63.13;100609.16;5034960;27;98843;-81
2023/09/14 07:25:49;;;;;;;8.65;3.88;;;;;;;21.82;62.65;100611.06;5069917;27;97338;-81
2023/09/14 07:28:19;;;;;;;6.28;4.20;;;;;;;22.00;62.03;100614.16;5033501;27;103492;-81
2023/09/14 07:30:46;;;;;;;6.00;4.32;;;;;;;22.17;61.68;100612.84;5030256;27;102021;-83
2023/09/14 07:33:12;;;;;;;10.10;3.58;;;;;;;22.32;61.01;100614.34;5041044;27;97398;-81
2023/09/14 07:35:39;;;;;;;4.32;3.08;;;;;;;22.43;60.66;100614.34;5056149;27;96893;-82
2023/09/14 07:38:12;;;;;;;8.30;3.20;;;;;;;22.53;60.37;100620.66;5044244;27;101418;-82
2023/09/14 07:40:38;;;;;;;5.95;3.92;;;;;;;22.63;60.63;100618.13;5054440;27;101372;-82
2023/09/14 07:43:03;;;;;;;8.07;3.42;;;;;;;22.72;60.60;100620.06;5055719;27;96825;-81
2023/09/14 07:45:30;;;;;;;7.30;3.25;;;;;;;22.69;60.54;100628.34;5035932;27;97216;-81
2023/09/14 07:47:56;;;;;;;8.75;3.45;;;;;;;22.50;60.56;100630.75;5053830;27;101564;-81
2023/09/14 07:50:21;;;;;;;7.30;3.22;;;;;;;22.44;60.71;100631.25;5043277;27;101506;-81
2023/09/14 07:52:47;;;;;;;7.35;3.67;;;;;;;22.46;60.40;100624.81;5064600;27;96808;-81
2023/09/14 07:55:12;;;;;;;6.35;3.33;;;;;;;22.43;60.29;100630.41;5054256;27;96899;-82
2023/09/14 07:57:39;;;;;;;9.68;4.10;;;;;;;22.26;60.77;100629.03;5042717;27;101511;-81
2023/09/14 08:00:06;;;;;;;8.73;4.18;;;;;;;22.33;60.74;100642.78;5052732;27;101536;-80
2023/09/14 08:02:37;;;;;;;8.63;4.10;;;;;;;22.45;60.60;100632.94;5059748;27;96754;-81
2023/09/14 08:05:03;;;;;;;7.97;4.03;;;;;;;23.18;58.61;100632.38;5047860;27;96979;-80
2023/09/14 08:07:28;;;;;;;9.02;4.68;;;;;;;23.76;56.62;100640.13;5042947;27;101368;-80
2023/09/14 08:09:54;;;;;;;9.18;4.97;;;;;;;24.18;55.91;100640.97;5029194;27;100898;-80
2023/09/14 08:12:19;;;;;;;9.70;5.20;;;;;;;25.86;52.22;100640.34;5062466;27;97220;-81
2023/09/14 08:14:45;;;;;;;9.55;4.30;;;;;;;26.80;49.73;100642.22;5050628;27;96929;-81
2023/09/14 08:17:11;;;;;;;7.38;3.90;;;;;;;27.10;48.93;100641.03;5049029;27;101177;-81
2023/09/14 08:19:37;;;;;;;9.27;4.20;;;;;;;27.15;48.67;100643.28;5059920;27;98458;-81
2023/09/14 08:22:03;;;;;;;7.85;3.97;;;;;;;32.23;39.72;100639.94;5033074;27;97241;-82
2023/09/14 08:24:29;;;;;;;5.70;4.28;;;;;;;33.85;36.37;100637.09;5048193;27;97324;-82
2023/09/14 08:26:55;;;;;;;10.43;9.52;;;;;;;32.05;38.72;100642.16;5055074;27;98034;-81
2023/09/14 08:29:21;;;;;;;6.93;4.45;;;;;;;31.21;39.53;100648.34;5028045;27;101109;-81
2023/09/14 08:31:50;;;;;;;8.10;4.35;;;;;;;30.68;39.61;100649.94;5040228;27;96923;-81
2023/09/14 08:34:15;;;;;;;11.38;7.25;;;;;;;29.44;42.18;100658.31;5037349;27;97284;-82
2023/09/14 08:36:41;;;;;;;10.00;4.50;;;;;;;27.88;44.68;100657.50;5061754;27;98102;-81
2023/09/14 08:39:06;;;;;;;12.57;11.48;;;;;;;26.64;47.39;100664.38;5052403;27;97919;-81
2023/09/14 08:41:37;;;;;;;8.60;5.78;;;;;;;25.84;48.94;100661.16;5049364;27;97158;-88
2023/09/14 08:44:04;;;;;;;9.32;5.07;;;;;;;25.22;50.75;100665.91;5037430;27;97379;-83
2023/09/14 08:46:30;;;;;;;6.97;3.92;;;;;;;24.75;51.88;100670.94;5039804;27;100170;-82
2023/09/14 08:48:57;;;;;;;6.13;4.00;;;;;;;24.39;52.81;100669.63;5066748;27;98002;-82
2023/09/14 08:51:25;;;;;;;8.77;4.40;;;;;;;24.22;53.87;100664.84;5042564;27;97314;-82
2023/09/14 08:53:52;;;;;;;6.95;4.63;;;;;;;23.95;54.32;100668.91;5055770;27;96912;-81
2023/09/14 08:56:18;;;;;;;9.90;5.47;;;;;;;23.71;54.96;100672.69;5047537;27;97711;-82
2023/09/14 08:58:43;;;;;;;8.57;5.78;;;;;;;23.58;55.46;100674.63;5063541;27;98056;-81
2023/09/14 09:01:11;;;;;;;11.88;7.40;;;;;;;23.51;55.67;100681.50;5038440;27;97150;-79
2023/09/14 09:03:37;;;;;;;11.35;10.27;;;;;;;23.41;55.77;100684.06;5039895;27;96874;-80
2023/09/14 09:06:02;;;;;;;15.25;11.23;;;;;;;23.33;55.64;100678.50;5038761;27;101038;-79
2023/09/14 09:08:28;;;;;;;16.15;12.60;;;;;;;23.45;55.47;100673.97;5067340;27;97347;-79
2023/09/14 09:10:53;;;;;;;12.40;11.13;;;;;;;23.55;55.71;100682.09;5045395;27;96799;-79
2023/09/14 09:13:19;;;;;;;16.15;14.10;;;;;;;23.52;55.92;100672.47;5051695;27;97552;-79
2023/09/14 09:15:45;;;;;;;14.23;12.73;;;;;;;23.43;56.30;100684.78;5053130;27;101309;-79
2023/09/14 09:18:11;;;;;;;14.77;5.45;;;;;;;23.54;56.12;100685.75;5049422;27;98075;-79
2023/09/14 09:20:40;;;;;;;9.05;6.82;;;;;;;23.70;56.10;100683.50;5036613;27;96865;-81
2023/09/14 09:23:05;;;;;;;14.23;6.70;;;;;;;23.86;55.75;100678.59;5048239;27;97064;-83
2023/09/14 09:26:01;;;;;;;9.45;5.10;;;;;;;23.78;55.70;100674.84;5035403;27;101543;-83
2023/09/14 09:28:30;;;;;;;13.35;6.25;;;;;;;23.67;55.68;100683.75;5048391;27;100870;-83
2023/09/14 09:30:56;;;;;;;19.33;5.63;;;;;;;23.62;55.88;100678.78;5027860;27;96813;-82
2023/09/14 09:33:35;;;;;;;11.25;4.88;;;;;;;23.86;55.41;100683.09;5045693;27;97226;-87
2023/09/14 09:36:13;;;;;;;10.65;4.35;;;;;;;24.06;54.93;100670.69;5053439;27;101720;-86
2023/09/14 09:38:39;;;;;;;11.88;5.07;;;;;;;23.99;54.95;100674.84;5036262;27;101366;-87
2023/09/14 09:41:09;;;;;;;10.60;4.32;;;;;;;23.88;55.10;100679.31;5052566;27;96922;-87
2023/09/14 09:43:34;;;;;;;7.65;4.07;;;;;;;23.73;55.18;100676.06;5060997;27;97247;-87
2023/09/14 09:46:00;;;;;;;13.27;4.75;;;;;;;23.87;54.27;100680.28;5036574;27;101027;-86
2023/09/14 09:48:27;;;;;;;11.70;4.35;;;;;;;24.25;53.03;100676.16;5021767;27;101419;-86
2023/09/14 09:50:54;;;;;;;7.43;4.68;;;;;;;24.82;51.01;100682.00;5035638;27;97681;-87
2023/09/14 09:53:20;;;;;;;22.67;5.85;;;;;;;25.59;49.52;100683.19;5031993;27;97297;-85
2023/09/14 09:55:46;;;;;;;12.80;4.20;;;;;;;26.19;48.27;100675.81;5043847;27;97565;-86
2023/09/14 09:58:13;;;;;;;5.75;4.80;;;;;;;26.50;47.78;100681.00;5038308;27;101039;-86
2023/09/14 10:00:39;;;;;;;9.23;4.88;;;;;;;26.07;47.91;100679.66;5037095;27;97198;-85
2023/09/14 10:03:05;;;;;;;9.77;3.60;;;;;;;25.46;48.36;100680.78;5051024;27;97052;-85
2023/09/14 10:05:33;;;;;;;6.47;3.47;;;;;;;24.85;50.01;100677.19;5055070;27;101640;-85
2023/09/14 10:07:59;;;;;;;11.82;5.63;;;;;;;24.58;51.08;100684.97;5044161;27;99879;-86
2023/09/14 10:10:27;;;;;;;12.02;3.70;;;;;;;24.44;51.29;100680.84;5040680;27;97115;-86
2023/09/14 10:12:53;;;;;;;6.60;4.25;;;;;;;24.27;51.48;100678.72;5020239;27;96891;-85
2023/09/14 10:15:20;;;;;;;19.13;6.53;;;;;;;24.15;51.95;100681.47;5031937;27;100313;-86
2023/09/14 10:17:47;;;;;;;13.55;8.38;;;;;;;24.06;52.64;100684.09;5038666;27;100381;-86
2023/09/14 10:20:13;;;;;;;8.90;3.58;;;;;;;24.05;53.03;100687.75;5073171;27;96873;-85
2023/09/14 10:22:40;;;;;;;8.73;3.80;;;;;;;24.09;52.74;100683.84;5044457;27;97133;-86
2023/09/14 10:25:08;;;;;;;8.85;3.97;;;;;;;24.27;52.38;100679.56;5040679;27;101659;-84
2023/09/14 10:27:33;;;;;;;12.35;7.55;;;;;;;24.49;51.95;100673.22;5048423;27;101330;-86
2023/09/14 10:30:02;;;;;;;12.40;7.40;;;;;;;24.67;51.46;100675.28;5059393;27;97178;-87
2023/09/14 10:32:29;;;;;;;7.95;3.30;;;;;;;24.87;50.84;100678.88;5050658;27;97171;-85
2023/09/14 10:34:58;;;;;;;11.15;4.13;;;;;;;25.29;49.47;100683.16;5059431;27;101280;-84
2023/09/14 10:37:23;;;;;;;7.70;3.65;;;;;;;26.19;47.73;100687.44;5053821;27;97301;-88
2023/09/14 10:39:50;;;;;;;6.60;3.33;;;;;;;26.82;47.09;100681.47;5064875;27;97407;-86
2023/09/14 10:42:16;;;;;;;7.30;3.83;;;;;;;27.19;45.98;100679.72;5052625;27;98214;-86
2023/09/14 10:44:41;;;;;;;14.70;3.78;;;;;;;27.44;44.66;100670.06;5066438;27;98372;-82
2023/09/14 10:47:07;;;;;;;9.20;3.20;;;;;;;27.60;44.77;100670.19;5065123;27;97328;-89
2023/09/14 10:49:35;;;;;;;9.35;3.58;;;;;;;27.68;44.41;100675.69;5080280;27;96871;-92
2023/09/14 10:52:01;;;;;;;6.18;3.42;;;;;;;27.92;43.76;100669.66;5081318;27;96965;-92
2023/09/14 10:54:31;;;;;;;6.38;3.03;;;;;;;27.65;43.68;100669.75;5061805;27;97464;-89
2023/09/14 10:57:01;;;;;;;13.63;3.67;;;;;;;26.97;44.91;100667.50;5059544;27;97911;-89
2023/09/14 10:59:49;;;;;;;10.32;3.75;;;;;;;26.16;45.97;100684.19;5040738;27;97446;-91
2023/09/14 11:02:37;;;;;;;10.73;6.78;;;;;;;25.46;47.63;100680.78;5043139;27;97314;-91
2023/09/14 11:05:18;;;;;;;14.85;4.07;;;;;;;24.93;48.31;100687.28;5073344;27;98696;-89
2023/09/14 11:07:45;;;;;;;5.22;3.15;;;;;;;24.52;48.67;100686.38;5059627;27;97506;-91
2023/09/14 11:10:16;;;;;;;9.98;4.10;;;;;;;24.28;49.24;100688.47;5069886;27;96843;-88
2023/09/14 11:12:43;;;;;;;8.20;4.28;;;;;;;24.07;49.38;100692.00;5065650;27;98399;-94
2023/09/14 11:15:16;;;;;;;5.47;3.30;;;;;;;24.04;49.18;100694.09;5065518;27;97998;-90
2023/09/14 11:17:46;;;;;;;12.32;6.93;;;;;;;24.10;49.29;100690.88;5062702;22;98821;-82